createdAt,value
2023-05-17T00:02:08.698Z,11.30
2023-05-17T00:04:36.520Z,11.30
2023-05-17T00:07:04.288Z,11.40
2023-05-17T00:09:33.012Z,11.40
2023-05-17T00:12:00.446Z,11.40
2023-05-17T00:14:27.527Z,11.40
2023-05-17T00:16:55.017Z,11.40
2023-05-17T00:19:22.274Z,11.40
2023-05-17T00:21:49.854Z,11.40
2023-05-17T00:24:17.305Z,11.40
2023-05-17T00:26:46.033Z,11.30
2023-05-17T00:29:13.031Z,11.30
2023-05-17T00:31:40.506Z,11.30
2023-05-17T00:34:07.935Z,11.40
2023-05-17T00:36:34.879Z,11.40
2023-05-17T00:41:48.244Z,11.30
2023-05-17T00:44:15.417Z,11.20
2023-05-17T00:46:42.823Z,11.20
2023-05-17T00:49:09.917Z,11.10
2023-05-17T00:51:37.048Z,11.10
2023-05-17T00:54:05.283Z,11.10
2023-05-17T00:56:32.995Z,11.00
2023-05-17T00:59:02.558Z,11.00
2023-05-17T01:01:30.643Z,10.90
2023-05-17T01:03:57.760Z,10.80
2023-05-17T01:06:25.199Z,10.80
2023-05-17T01:08:52.299Z,10.80
2023-05-17T01:11:32.837Z,10.70
2023-05-17T01:14:24.135Z,10.70
2023-05-17T01:17:02.136Z,10.70
2023-05-17T01:19:53.376Z,10.70
2023-05-17T01:22:32.490Z,10.80
2023-05-17T01:25:13.203Z,10.70
2023-05-17T01:27:45.914Z,10.70
2023-05-17T01:30:14.665Z,10.60
2023-05-17T01:32:43.535Z,10.60
2023-05-17T01:35:12.410Z,10.60
2023-05-17T01:37:39.903Z,10.50
2023-05-17T01:40:09.440Z,10.50
2023-05-17T01:42:42.440Z,10.30
2023-05-17T01:45:18.549Z,10.30
2023-05-17T01:47:58.085Z,10.30
2023-05-17T01:50:29.958Z,10.30
2023-05-17T01:53:04.594Z,10.30
2023-05-17T01:55:46.064Z,10.30
2023-05-17T01:58:16.581Z,10.40
2023-05-17T02:00:46.763Z,10.40
2023-05-17T02:03:17.646Z,10.30
2023-05-17T02:05:44.706Z,10.30
2023-05-17T02:08:12.137Z,10.30
2023-05-17T02:10:39.733Z,10.30
2023-05-17T02:13:06.869Z,10.30
2023-05-17T02:15:35.252Z,10.30
2023-05-17T02:18:02.827Z,10.30
2023-05-17T02:20:30.374Z,10.20
2023-05-17T02:22:57.336Z,10.20
2023-05-17T02:25:24.335Z,10.20
2023-05-17T02:27:51.703Z,10.00
2023-05-17T02:30:22.455Z,10.00
2023-05-17T02:32:52.461Z,9.90
2023-05-17T02:35:19.852Z,9.90
2023-05-17T02:37:46.854Z,9.90
2023-05-17T02:40:14.174Z,9.80
2023-05-17T02:42:41.661Z,9.70
2023-05-17T02:45:09.813Z,9.70
2023-05-17T02:47:36.818Z,9.70
2023-05-17T02:50:06.320Z,9.70
2023-05-17T02:52:33.318Z,9.70
2023-05-17T02:55:00.371Z,9.70
2023-05-17T02:57:28.025Z,9.60
2023-05-17T02:59:55.024Z,9.70
2023-05-17T03:02:22.576Z,9.70
2023-05-17T03:04:49.707Z,9.60
2023-05-17T03:10:02.545Z,9.60
2023-05-17T03:12:30.062Z,9.60
2023-05-17T03:14:57.018Z,9.60
2023-05-17T03:17:24.222Z,9.50
2023-05-17T03:19:51.792Z,9.50
2023-05-17T03:22:20.226Z,9.40
2023-05-17T03:24:47.459Z,9.40
2023-05-17T03:27:14.486Z,9.40
2023-05-17T03:29:43.022Z,9.40
2023-05-17T03:32:10.033Z,9.30
2023-05-17T03:34:37.089Z,9.30
2023-05-17T03:37:04.528Z,9.30
2023-05-17T03:39:32.864Z,9.40
2023-05-17T03:41:59.910Z,9.40
2023-05-17T03:44:26.825Z,9.40
2023-05-17T03:46:54.328Z,9.40
2023-05-17T03:49:22.473Z,9.50
2023-05-17T03:51:49.502Z,9.50
2023-05-17T03:54:16.506Z,9.50
2023-05-17T03:56:47.631Z,9.50
2023-05-17T03:59:15.219Z,9.60
2023-05-17T04:01:43.634Z,9.60
2023-05-17T04:04:11.124Z,9.50
2023-05-17T04:06:39.333Z,9.50
2023-05-17T04:09:07.374Z,9.50
2023-05-17T04:11:34.845Z,9.50
2023-05-17T04:14:04.982Z,9.60
2023-05-17T04:16:32.554Z,9.60
2023-05-17T04:19:00.588Z,9.70
2023-05-17T04:21:28.380Z,9.70
2023-05-17T04:23:55.463Z,9.60
2023-05-17T04:26:23.121Z,9.70
2023-05-17T04:28:50.655Z,9.70
2023-05-17T04:31:19.854Z,9.80
2023-05-17T04:33:47.160Z,9.70
2023-05-17T04:36:14.323Z,9.70
2023-05-17T04:38:41.358Z,9.60
2023-05-17T04:41:09.879Z,9.60
2023-05-17T04:43:36.947Z,9.60
2023-05-17T04:46:05.686Z,9.60
2023-05-17T04:48:34.641Z,9.60
2023-05-17T04:51:06.324Z,9.50
2023-05-17T04:53:33.542Z,9.50
2023-05-17T04:56:00.622Z,9.50
2023-05-17T04:58:27.716Z,9.40
2023-05-17T05:00:54.772Z,9.30
2023-05-17T05:03:23.092Z,9.30
2023-05-17T05:05:51.469Z,9.40
2023-05-17T05:08:18.963Z,9.40
2023-05-17T05:10:46.974Z,9.30
2023-05-17T05:13:14.318Z,9.30
2023-05-17T05:15:41.781Z,9.40
2023-05-17T05:18:08.883Z,9.50
2023-05-17T05:20:36.403Z,9.50
2023-05-17T05:23:06.033Z,9.60
2023-05-17T05:25:34.885Z,9.80
2023-05-17T05:28:01.931Z,9.90
2023-05-17T05:30:29.522Z,9.90
2023-05-17T05:32:56.666Z,9.90
2023-05-17T05:35:30.357Z,9.90
2023-05-17T05:37:58.774Z,10.00
2023-05-17T05:40:27.495Z,10.00
2023-05-17T05:42:55.185Z,10.10
2023-05-17T05:45:22.498Z,10.10
2023-05-17T05:47:50.036Z,10.00
2023-05-17T05:50:17.085Z,10.10
2023-05-17T05:52:44.532Z,10.20
2023-05-17T05:55:11.662Z,10.30
2023-05-17T05:57:40.606Z,10.30
2023-05-17T06:00:12.431Z,10.40
2023-05-17T06:02:39.868Z,10.50
2023-05-17T06:05:08.180Z,10.50
2023-05-17T06:07:35.102Z,10.60
2023-05-17T06:10:02.069Z,10.70
2023-05-17T06:12:29.605Z,10.70
2023-05-17T06:14:57.981Z,10.80
2023-05-17T06:17:25.081Z,10.90
2023-05-17T06:19:52.988Z,11.00
2023-05-17T06:22:20.206Z,11.10
2023-05-17T06:24:47.200Z,11.30
2023-05-17T06:27:14.200Z,11.50
2023-05-17T06:29:42.287Z,11.60
2023-05-17T06:32:11.497Z,11.60
2023-05-17T06:34:40.501Z,11.70
2023-05-17T06:37:08.015Z,11.90
2023-05-17T06:39:35.144Z,12.10
2023-05-17T06:42:02.232Z,12.50
2023-05-17T06:44:29.786Z,12.80
2023-05-17T06:46:56.801Z,12.60
2023-05-17T06:49:25.669Z,12.70
2023-05-17T06:51:54.596Z,12.90
2023-05-17T06:54:22.097Z,13.10
2023-05-17T06:56:49.619Z,13.30
2023-05-17T06:59:16.591Z,13.20
2023-05-17T07:01:43.676Z,13.00
2023-05-17T07:04:11.255Z,12.80
2023-05-17T07:06:39.623Z,12.70
2023-05-17T07:09:07.103Z,12.70
2023-05-17T07:14:18.373Z,13.00
2023-05-17T07:16:45.457Z,13.40
2023-05-17T07:19:13.010Z,13.90
2023-05-17T07:21:41.851Z,14.50
2023-05-17T07:24:09.956Z,14.60
2023-05-17T07:26:36.979Z,14.20
2023-05-17T07:29:04.146Z,14.20
2023-05-17T07:31:31.993Z,14.30
2023-05-17T07:33:59.405Z,14.20
2023-05-17T07:36:30.515Z,14.00
2023-05-17T07:38:59.006Z,14.00
2023-05-17T07:41:27.198Z,14.00
2023-05-17T07:43:54.162Z,14.00
2023-05-17T07:46:21.616Z,14.20
2023-05-17T07:48:48.723Z,14.40
2023-05-17T07:51:15.987Z,14.20
2023-05-17T07:56:29.273Z,14.50
2023-05-17T07:58:56.418Z,14.70
2023-05-17T08:01:23.812Z,15.00
2023-05-17T08:03:51.378Z,15.10
2023-05-17T08:06:18.879Z,14.90
2023-05-17T08:08:45.941Z,14.90
2023-05-17T08:11:14.044Z,14.40
2023-05-17T08:13:42.524Z,14.20
2023-05-17T08:16:14.331Z,13.80
2023-05-17T08:18:42.521Z,13.70
2023-05-17T08:21:09.947Z,13.60
2023-05-17T08:23:37.029Z,13.40
2023-05-17T08:26:04.360Z,13.30
2023-05-17T08:28:31.707Z,13.20
2023-05-17T08:31:00.569Z,13.20
2023-05-17T08:33:28.570Z,13.40
2023-05-17T08:35:58.162Z,13.60
2023-05-17T08:38:25.278Z,13.70
2023-05-17T08:40:56.165Z,13.80
2023-05-17T08:43:27.717Z,13.80
2023-05-17T08:45:57.940Z,13.80
2023-05-17T08:48:27.703Z,13.70
2023-05-17T08:50:58.417Z,13.50
2023-05-17T08:53:26.686Z,13.80
2023-05-17T08:56:00.818Z,14.50
2023-05-17T08:58:38.470Z,15.10
2023-05-17T09:01:19.390Z,15.60
2023-05-17T09:03:49.606Z,16.20
2023-05-17T09:06:18.954Z,16.50
2023-05-17T09:08:46.027Z,16.50
2023-05-17T09:11:13.214Z,16.10
2023-05-17T09:13:40.206Z,15.50
2023-05-17T09:16:15.023Z,15.00
2023-05-17T09:18:42.232Z,14.60
2023-05-17T09:21:14.304Z,14.60
2023-05-17T09:23:43.597Z,14.50
2023-05-17T09:26:13.705Z,14.40
2023-05-17T09:28:44.923Z,14.30
2023-05-17T09:31:15.238Z,14.30
2023-05-17T09:33:47.000Z,14.30
2023-05-17T09:36:20.965Z,14.20
2023-05-17T09:38:55.847Z,14.20
2023-05-17T09:41:27.046Z,14.20
2023-05-17T09:43:54.726Z,14.10
2023-05-17T09:46:21.755Z,14.00
2023-05-17T09:48:55.206Z,14.00
2023-05-17T09:51:34.101Z,14.30
2023-05-17T09:54:01.498Z,14.50
2023-05-17T09:56:30.073Z,14.60
2023-05-17T09:58:58.902Z,14.30
2023-05-17T10:01:28.372Z,14.10
2023-05-17T10:09:34.991Z,14.00
2023-05-17T10:12:05.961Z,13.90
2023-05-17T10:14:35.322Z,13.80
2023-05-17T10:17:03.572Z,13.90
2023-05-17T10:19:31.367Z,14.00
2023-05-17T10:22:19.033Z,14.10
2023-05-17T10:24:52.021Z,14.20
2023-05-17T10:27:20.860Z,14.30
2023-05-17T10:29:50.362Z,14.40
2023-05-17T10:32:23.568Z,14.50
2023-05-17T10:35:02.085Z,14.80
2023-05-17T10:37:40.601Z,14.90
2023-05-17T10:40:15.029Z,14.60
2023-05-17T10:42:46.778Z,14.50
2023-05-17T10:45:14.696Z,14.50
2023-05-17T10:47:43.166Z,14.40
2023-05-17T10:50:13.132Z,14.20
2023-05-17T10:52:47.903Z,14.20
2023-05-17T10:55:20.593Z,14.30
2023-05-17T10:58:16.446Z,14.40
2023-05-17T11:00:47.913Z,14.60
2023-05-17T11:03:18.222Z,14.80
2023-05-17T11:06:23.655Z,14.80
2023-05-17T11:09:16.961Z,14.90
2023-05-17T11:12:07.138Z,15.00
2023-05-17T11:14:51.997Z,15.00
2023-05-17T11:17:21.768Z,15.20
2023-05-17T11:20:06.821Z,15.30
2023-05-17T11:22:40.036Z,15.40
2023-05-17T11:25:11.491Z,15.30
2023-05-17T11:27:44.471Z,15.20
2023-05-17T11:30:20.055Z,15.00
2023-05-17T11:32:49.897Z,14.90
2023-05-17T11:35:18.513Z,14.80
2023-05-17T11:40:32.747Z,15.10
2023-05-17T11:43:15.688Z,15.20
2023-05-17T11:45:44.817Z,15.30
2023-05-17T11:48:13.987Z,15.30
2023-05-17T11:50:41.976Z,15.30
2023-05-17T11:53:10.125Z,15.30
2023-05-17T11:55:41.295Z,15.50
2023-05-17T11:58:12.234Z,15.50
2023-05-17T12:00:42.432Z,15.50
2023-05-17T12:03:21.090Z,15.50
2023-05-17T12:05:50.969Z,15.40
2023-05-17T12:08:19.239Z,15.40
2023-05-17T12:10:50.868Z,15.50
2023-05-17T12:13:18.620Z,15.60
2023-05-17T12:15:51.912Z,15.60
2023-05-17T12:18:20.695Z,15.60
2023-05-17T12:20:55.501Z,15.50
2023-05-17T12:23:31.465Z,15.70
2023-05-17T12:26:09.259Z,15.80
2023-05-17T12:28:38.134Z,15.90
2023-05-17T12:31:09.535Z,15.90
2023-05-17T12:33:41.067Z,15.90
2023-05-17T12:36:10.413Z,15.90
2023-05-17T12:38:40.582Z,15.90
2023-05-17T12:41:12.146Z,15.90
2023-05-17T12:43:41.059Z,16.10
2023-05-17T12:46:09.535Z,16.20
2023-05-17T12:48:37.679Z,16.30
2023-05-17T12:51:11.836Z,16.10
2023-05-17T12:53:40.886Z,16.10
2023-05-17T12:56:16.350Z,16.00
2023-05-17T12:58:44.948Z,15.90
2023-05-17T13:01:14.547Z,16.00
2023-05-17T13:03:42.377Z,16.00
2023-05-17T13:06:10.665Z,16.00
2023-05-17T13:08:38.240Z,16.10
2023-05-17T13:11:12.465Z,16.20
2023-05-17T13:13:40.165Z,16.40
2023-05-17T13:16:08.083Z,16.40
2023-05-17T13:18:49.840Z,16.30
2023-05-17T13:21:19.361Z,16.30
2023-05-17T13:23:48.803Z,16.50
2023-05-17T13:26:19.167Z,16.40
2023-05-17T13:28:46.767Z,16.40
2023-05-17T13:31:13.944Z,16.40
2023-05-17T13:33:41.287Z,16.40
2023-05-17T13:36:08.864Z,16.40
2023-05-17T13:38:36.326Z,16.40
2023-05-17T13:41:03.451Z,16.50
2023-05-17T13:43:31.825Z,16.50
2023-05-17T13:45:59.072Z,16.60
2023-05-17T13:48:26.226Z,16.60
2023-05-17T13:50:53.525Z,16.60
2023-05-17T13:53:20.995Z,16.60
2023-05-17T13:55:48.162Z,16.60
2023-05-17T13:58:16.815Z,16.50
2023-05-17T14:00:45.218Z,16.50
2023-05-17T14:03:13.721Z,16.40
2023-05-17T14:05:41.132Z,16.50
2023-05-17T14:08:09.352Z,16.60
2023-05-17T14:10:36.802Z,16.50
2023-05-17T14:13:03.926Z,16.60
2023-05-17T14:15:31.051Z,16.50
2023-05-17T14:17:59.474Z,16.60
2023-05-17T14:20:26.982Z,16.70
2023-05-17T14:22:54.363Z,16.70
2023-05-17T14:25:21.605Z,16.80
2023-05-17T14:27:49.042Z,16.90
2023-05-17T14:30:16.220Z,17.00
2023-05-17T14:32:43.655Z,17.00
2023-05-17T14:35:12.503Z,17.00
2023-05-17T14:37:39.830Z,17.00
2023-05-17T14:40:08.586Z,16.90
2023-05-17T14:42:36.061Z,16.80
2023-05-17T14:45:03.266Z,16.90
2023-05-17T14:47:30.841Z,17.00
2023-05-17T14:49:58.005Z,17.00
2023-05-17T14:52:26.871Z,17.10
2023-05-17T14:54:53.853Z,17.00
2023-05-17T14:57:21.476Z,17.00
2023-05-17T14:59:48.963Z,17.00
2023-05-17T15:02:16.443Z,17.00
2023-05-17T15:04:43.498Z,17.10
2023-05-17T15:07:11.103Z,17.10
2023-05-17T15:09:44.516Z,17.10
2023-05-17T15:12:14.106Z,17.10
2023-05-17T15:14:41.374Z,17.10
2023-05-17T15:17:08.574Z,17.10
2023-05-17T15:19:36.467Z,17.10
2023-05-17T15:22:03.879Z,17.10
2023-05-17T15:24:30.803Z,17.00
2023-05-17T15:26:59.552Z,17.10
2023-05-17T15:29:26.557Z,17.20
2023-05-17T15:34:38.462Z,17.30
2023-05-17T15:37:05.879Z,17.20
2023-05-17T15:39:32.846Z,17.20
2023-05-17T15:42:01.853Z,17.20
2023-05-17T15:44:29.313Z,17.20
2023-05-17T15:46:56.340Z,17.10
2023-05-17T15:49:23.755Z,17.00
2023-05-17T15:51:50.858Z,17.10
2023-05-17T15:54:18.180Z,17.10
2023-05-17T15:56:45.199Z,17.10
2023-05-17T15:59:14.483Z,17.10
2023-05-17T16:01:42.389Z,17.10
2023-05-17T16:04:09.471Z,17.10
2023-05-17T16:06:37.183Z,17.10
2023-05-17T16:09:04.452Z,17.20
2023-05-17T16:11:32.282Z,17.20
2023-05-17T16:13:59.749Z,17.20
2023-05-17T16:16:28.266Z,17.20
2023-05-17T16:18:55.636Z,17.20
2023-05-17T16:21:22.860Z,17.20
2023-05-17T16:23:49.874Z,17.20
2023-05-17T16:26:16.922Z,17.30
2023-05-17T16:28:43.887Z,17.30
2023-05-17T16:31:11.059Z,17.20
2023-05-17T16:33:41.300Z,17.30
2023-05-17T16:36:09.371Z,17.30
2023-05-17T16:38:36.426Z,17.40
2023-05-17T16:41:03.595Z,17.30
2023-05-17T16:46:16.095Z,17.20
2023-05-17T16:48:44.779Z,17.30
2023-05-17T16:51:11.748Z,17.30
2023-05-17T16:53:38.767Z,17.40
2023-05-17T16:56:06.674Z,17.40
2023-05-17T16:58:34.548Z,17.40
2023-05-17T17:01:01.958Z,17.50
2023-05-17T17:03:29.184Z,17.40
2023-05-17T17:05:57.996Z,17.40
2023-05-17T17:08:25.098Z,17.40
2023-05-17T17:10:52.141Z,17.40
2023-05-17T17:13:19.115Z,17.40
2023-05-17T17:15:46.946Z,17.40
2023-05-17T17:18:14.178Z,17.40
2023-05-17T17:20:41.723Z,17.40
2023-05-17T17:23:10.080Z,17.40
2023-05-17T17:25:37.122Z,17.50
2023-05-17T17:28:04.584Z,17.50
2023-05-17T17:30:31.857Z,17.50
2023-05-17T17:32:59.216Z,17.40
2023-05-17T17:35:26.460Z,17.30
2023-05-17T17:37:53.803Z,17.20
2023-05-17T17:40:22.353Z,17.20
2023-05-17T17:42:49.370Z,17.10
2023-05-17T17:45:16.466Z,17.20
2023-05-17T17:47:43.673Z,17.10
2023-05-17T17:50:11.385Z,17.20
2023-05-17T17:52:38.488Z,17.10
2023-05-17T17:55:08.028Z,17.10
2023-05-17T17:57:36.389Z,17.10
2023-05-17T18:00:04.372Z,17.10
2023-05-17T18:02:31.446Z,17.10
2023-05-17T18:04:58.916Z,17.10
2023-05-17T18:07:25.892Z,17.00
2023-05-17T18:09:52.975Z,17.00
2023-05-17T18:12:20.733Z,16.90
2023-05-17T18:14:49.445Z,16.80
2023-05-17T18:17:16.775Z,16.80
2023-05-17T18:19:43.764Z,16.80
2023-05-17T18:22:10.826Z,16.80
2023-05-17T18:24:38.140Z,16.80
2023-05-17T18:27:05.766Z,16.70
2023-05-17T18:29:33.082Z,16.60
2023-05-17T18:32:01.934Z,16.60
2023-05-17T18:34:28.971Z,16.50
2023-05-17T18:36:55.985Z,16.50
2023-05-17T18:39:23.380Z,16.40
2023-05-17T18:41:50.433Z,16.40
2023-05-17T18:44:19.907Z,16.30
2023-05-17T18:46:48.590Z,16.20
2023-05-17T18:49:18.055Z,16.20
2023-05-17T18:51:45.630Z,16.10
2023-05-17T18:54:12.754Z,16.00
2023-05-17T18:56:39.791Z,16.00
2023-05-17T18:59:06.908Z,16.00
2023-05-17T19:01:34.148Z,15.90
2023-05-17T19:04:01.336Z,15.80
2023-05-17T19:06:30.902Z,15.70
2023-05-17T19:08:59.914Z,15.70
2023-05-17T19:11:28.657Z,15.70
2023-05-17T19:13:55.780Z,15.60
2023-05-17T19:16:22.986Z,15.60
2023-05-17T19:18:50.443Z,15.60
2023-05-17T19:21:17.800Z,15.60
2023-05-17T19:23:46.188Z,15.60
2023-05-17T19:26:13.195Z,15.50
2023-05-17T19:28:40.373Z,15.50
2023-05-17T19:31:08.653Z,15.40
2023-05-17T19:33:37.690Z,15.40
2023-05-17T19:36:04.851Z,15.40
2023-05-17T19:38:33.276Z,15.30
2023-05-17T19:41:02.246Z,15.20
2023-05-17T19:43:29.435Z,15.20
2023-05-17T19:45:56.469Z,15.10
2023-05-17T19:48:24.502Z,15.10
2023-05-17T19:50:53.193Z,15.10
2023-05-17T19:53:22.431Z,15.10
2023-05-17T19:55:49.586Z,15.10
2023-05-17T19:58:18.110Z,15.00
2023-05-17T20:00:45.358Z,14.90
2023-05-17T20:03:12.670Z,14.80
2023-05-17T20:05:39.750Z,14.80
2023-05-17T20:08:08.490Z,14.80
2023-05-17T20:10:36.226Z,14.80
2023-05-17T20:15:49.023Z,14.70
2023-05-17T20:18:16.900Z,14.70
2023-05-17T20:20:43.944Z,14.60
2023-05-17T20:23:13.351Z,14.60
2023-05-17T20:25:41.742Z,14.60
2023-05-17T20:28:08.781Z,14.50
2023-05-17T20:30:35.967Z,14.50
2023-05-17T20:33:05.199Z,14.30
2023-05-17T20:35:32.561Z,14.20
2023-05-17T20:38:00.138Z,14.20
2023-05-17T20:40:27.268Z,14.20
2023-05-17T20:42:54.486Z,14.20
2023-05-17T20:45:22.670Z,14.10
2023-05-17T20:47:51.212Z,14.10
2023-05-17T20:50:21.475Z,14.10
2023-05-17T20:52:48.747Z,13.90
2023-05-17T20:55:15.808Z,14.00
2023-05-17T20:57:42.880Z,14.00
2023-05-17T21:00:11.887Z,14.00
2023-05-17T21:02:39.600Z,14.00
2023-05-17T21:05:09.440Z,14.00
2023-05-17T21:07:40.845Z,13.90
2023-05-17T21:10:09.873Z,13.80
2023-05-17T21:12:36.905Z,13.70
2023-05-17T21:15:18.535Z,13.60
2023-05-17T21:17:45.662Z,13.40
2023-05-17T21:20:13.526Z,13.40
2023-05-17T21:22:41.927Z,13.40
2023-05-17T21:25:10.398Z,13.30
2023-05-17T21:27:37.721Z,13.20
2023-05-17T21:30:06.307Z,13.30
2023-05-17T21:32:33.274Z,13.00
2023-05-17T21:35:00.818Z,13.10
2023-05-17T21:37:28.254Z,13.20
2023-05-17T21:39:56.633Z,13.00
2023-05-17T21:42:23.745Z,13.10
2023-05-17T21:44:50.776Z,13.10
2023-05-17T21:47:17.732Z,13.10
2023-05-17T21:49:44.831Z,13.10
2023-05-17T21:52:11.813Z,13.10
2023-05-17T21:54:38.855Z,13.10
2023-05-17T21:57:07.889Z,13.10
2023-05-17T21:59:35.129Z,13.10
2023-05-17T22:02:02.563Z,13.10
2023-05-17T22:04:29.968Z,13.10
2023-05-17T22:06:57.470Z,13.00
2023-05-17T22:09:24.405Z,13.00
2023-05-17T22:11:52.439Z,13.00
2023-05-17T22:14:20.845Z,13.00
2023-05-17T22:16:48.197Z,13.00
2023-05-17T22:19:15.325Z,12.90
2023-05-17T22:21:42.412Z,13.00
2023-05-17T22:24:09.370Z,13.00
2023-05-17T22:26:36.769Z,12.90
2023-05-17T22:29:03.724Z,12.90
2023-05-17T22:31:38.086Z,12.90
2023-05-17T22:34:05.387Z,12.90
2023-05-17T22:36:34.234Z,12.90
2023-05-17T22:39:01.402Z,12.90
2023-05-17T22:41:28.855Z,12.90
2023-05-17T22:43:55.846Z,12.80
2023-05-17T22:46:23.067Z,12.70
2023-05-17T22:48:53.147Z,12.70
2023-05-17T22:51:20.161Z,12.70
2023-05-17T22:53:47.142Z,12.50
2023-05-17T22:56:14.185Z,12.60
2023-05-17T22:58:41.943Z,12.50
2023-05-17T23:01:08.978Z,12.50
2023-05-17T23:03:36.079Z,12.60
2023-05-17T23:08:49.814Z,12.50
2023-05-17T23:11:18.011Z,12.50
2023-05-17T23:13:45.055Z,12.40
2023-05-17T23:16:13.998Z,12.50
2023-05-17T23:18:41.278Z,12.40
2023-05-17T23:21:09.787Z,12.40
2023-05-17T23:23:37.989Z,12.30
2023-05-17T23:26:05.960Z,12.20
2023-05-17T23:28:32.964Z,12.30
2023-05-17T23:31:01.824Z,12.30
2023-05-17T23:33:31.696Z,12.20
2023-05-17T23:38:44.759Z,12.20
2023-05-17T23:41:17.386Z,12.20
2023-05-17T23:43:44.700Z,12.10
2023-05-17T23:46:13.590Z,12.10
2023-05-17T23:48:40.986Z,12.20
2023-05-17T23:51:08.759Z,12.20
2023-05-17T23:53:36.165Z,12.20
2023-05-17T23:56:05.499Z,12.10
2023-05-17T23:58:32.976Z,12.00
